Olten, Switzerland
Current Conditions -  °F | °C
As of 12:30 AM on Thursday 23 Oct 2014 (Local Time) from LFSB Reporting Station
Light Rain Light Rain  
Wind Chill: 40°   Ceiling: 7000
Heat Index: 46°   Visibility: 6mi
Dew Point: 41°   Wind: 15mph
Humidity: 81%   Direction: 270°W
Pressure: 30.24"   Gusts: NA
Location:  47.37°N, 7.9°E
Report Text: LFSB 222230Z 27013KT 230V290 9999 -RA FEW025 SCT050 BKN07008/05 Q1024 NOSIG
Loading
Personal Weather Stations






























Interactive Weather Map
Tropical Storm Tracking
New forecast layout! Learn more

10-Day Weather Forecast

Advertisements
Track Severe Weather on mobile